sensor_id;sensor_type;location;lat;lon;timestamp;P1;durP1;ratioP1;P2;durP2;ratioP2
3625;SDS011;1827;50.534;8.316;2022-09-27T00:01:06;16.93;;;2.30;;
3625;SDS011;1827;50.534;8.316;2022-09-27T00:03:34;15.73;;;2.30;;
3625;SDS011;1827;50.534;8.316;2022-09-27T00:08:26;14.90;;;2.27;;
3625;SDS011;1827;50.534;8.316;2022-09-27T00:10:59;13.30;;;2.27;;
3625;SDS011;1827;50.534;8.316;2022-09-27T00:13:26;14.53;;;2.37;;
3625;SDS011;1827;50.534;8.316;2022-09-27T00:15:56;14.07;;;2.33;;
3625;SDS011;1827;50.534;8.316;2022-09-27T00:18:29;17.80;;;2.63;;
3625;SDS011;1827;50.534;8.316;2022-09-27T00:20:56;16.30;;;2.57;;
3625;SDS011;1827;50.534;8.316;2022-09-27T00:23:32;19.00;;;2.50;;
3625;SDS011;1827;50.534;8.316;2022-09-27T00:25:58;16.53;;;2.50;;
3625;SDS011;1827;50.534;8.316;2022-09-27T00:28:24;16.57;;;2.40;;
3625;SDS011;1827;50.534;8.316;2022-09-27T00:30:50;15.60;;;2.60;;
3625;SDS011;1827;50.534;8.316;2022-09-27T00:33:18;17.30;;;3.00;;
3625;SDS011;1827;50.534;8.316;2022-09-27T00:35:44;17.53;;;2.93;;
3625;SDS011;1827;50.534;8.316;2022-09-27T00:38:11;14.60;;;2.80;;
3625;SDS011;1827;50.534;8.316;2022-09-27T00:40:37;18.80;;;2.90;;
3625;SDS011;1827;50.534;8.316;2022-09-27T00:43:09;15.77;;;3.10;;
3625;SDS011;1827;50.534;8.316;2022-09-27T00:45:49;15.20;;;2.60;;
3625;SDS011;1827;50.534;8.316;2022-09-27T00:48:26;17.60;;;3.20;;
3625;SDS011;1827;50.534;8.316;2022-09-27T00:50:56;15.73;;;2.90;;
3625;SDS011;1827;50.534;8.316;2022-09-27T00:53:30;22.87;;;3.10;;
3625;SDS011;1827;50.534;8.316;2022-09-27T00:56:00;18.67;;;3.23;;
3625;SDS011;1827;50.534;8.316;2022-09-27T00:58:42;17.90;;;3.20;;
3625;SDS011;1827;50.534;8.316;2022-09-27T01:01:16;18.47;;;3.40;;
3625;SDS011;1827;50.534;8.316;2022-09-27T01:06:24;17.20;;;3.13;;
3625;SDS011;1827;50.534;8.316;2022-09-27T01:08:50;18.17;;;2.90;;
3625;SDS011;1827;50.534;8.316;2022-09-27T01:14:10;18.77;;;3.03;;
3625;SDS011;1827;50.534;8.316;2022-09-27T01:22:22;22.70;;;3.10;;
3625;SDS011;1827;50.534;8.316;2022-09-27T01:33:03;19.83;;;3.47;;
3625;SDS011;1827;50.534;8.316;2022-09-27T01:41:00;27.13;;;4.37;;
3625;SDS011;1827;50.534;8.316;2022-09-27T01:44:23;17.73;;;3.70;;
3625;SDS011;1827;50.534;8.316;2022-09-27T01:47:08;19.93;;;3.90;;
3625;SDS011;1827;50.534;8.316;2022-09-27T01:49:54;19.50;;;4.20;;
3625;SDS011;1827;50.534;8.316;2022-09-27T01:52:41;21.43;;;3.77;;
3625;SDS011;1827;50.534;8.316;2022-09-27T01:55:14;24.57;;;4.00;;
3625;SDS011;1827;50.534;8.316;2022-09-27T02:00:34;25.50;;;4.17;;
3625;SDS011;1827;50.534;8.316;2022-09-27T02:03:12;21.40;;;4.10;;
3625;SDS011;1827;50.534;8.316;2022-09-27T02:06:38;19.47;;;3.63;;
3625;SDS011;1827;50.534;8.316;2022-09-27T02:09:16;21.23;;;4.07;;
3625;SDS011;1827;50.534;8.316;2022-09-27T02:12:00;19.30;;;4.10;;
3625;SDS011;1827;50.534;8.316;2022-09-27T02:14:35;16.80;;;3.80;;
3625;SDS011;1827;50.534;8.316;2022-09-27T02:17:17;21.17;;;4.40;;
3625;SDS011;1827;50.534;8.316;2022-09-27T02:20:47;18.40;;;3.60;;
3625;SDS011;1827;50.534;8.316;2022-09-27T02:31:06;17.97;;;3.47;;
3625;SDS011;1827;50.534;8.316;2022-09-27T02:33:36;19.37;;;3.47;;
3625;SDS011;1827;50.534;8.316;2022-09-27T02:36:07;18.77;;;3.43;;
3625;SDS011;1827;50.534;8.316;2022-09-27T02:38:33;16.73;;;3.00;;
3625;SDS011;1827;50.534;8.316;2022-09-27T02:41:00;20.10;;;4.00;;
3625;SDS011;1827;50.534;8.316;2022-09-27T02:43:27;19.93;;;3.80;;
3625;SDS011;1827;50.534;8.316;2022-09-27T02:48:40;22.40;;;3.33;;
3625;SDS011;1827;50.534;8.316;2022-09-27T02:59:56;15.67;;;3.17;;
3625;SDS011;1827;50.534;8.316;2022-09-27T03:02:58;16.53;;;3.30;;
3625;SDS011;1827;50.534;8.316;2022-09-27T03:05:44;17.20;;;3.53;;
3625;SDS011;1827;50.534;8.316;2022-09-27T03:08:22;15.30;;;3.30;;
3625;SDS011;1827;50.534;8.316;2022-09-27T03:10:48;16.40;;;3.43;;
3625;SDS011;1827;50.534;8.316;2022-09-27T03:13:14;15.20;;;3.00;;
3625;SDS011;1827;50.534;8.316;2022-09-27T03:15:41;15.90;;;3.07;;
3625;SDS011;1827;50.534;8.316;2022-09-27T03:18:16;13.70;;;2.80;;
3625;SDS011;1827;50.534;8.316;2022-09-27T03:21:00;18.60;;;3.07;;
3625;SDS011;1827;50.534;8.316;2022-09-27T03:23:26;16.20;;;3.20;;
3625;SDS011;1827;50.534;8.316;2022-09-27T03:25:52;18.53;;;2.90;;
3625;SDS011;1827;50.534;8.316;2022-09-27T03:28:18;17.37;;;2.87;;
3625;SDS011;1827;50.534;8.316;2022-09-27T03:30:45;16.10;;;3.03;;
3625;SDS011;1827;50.534;8.316;2022-09-27T03:33:21;15.20;;;2.70;;
3625;SDS011;1827;50.534;8.316;2022-09-27T03:35:55;15.40;;;3.20;;
3625;SDS011;1827;50.534;8.316;2022-09-27T03:38:21;16.83;;;2.90;;
3625;SDS011;1827;50.534;8.316;2022-09-27T03:40:47;13.93;;;2.60;;
3625;SDS011;1827;50.534;8.316;2022-09-27T03:43:13;17.97;;;3.17;;
3625;SDS011;1827;50.534;8.316;2022-09-27T03:45:38;14.47;;;2.83;;
3625;SDS011;1827;50.534;8.316;2022-09-27T03:48:07;17.40;;;3.17;;
3625;SDS011;1827;50.534;8.316;2022-09-27T03:50:33;14.70;;;2.73;;
3625;SDS011;1827;50.534;8.316;2022-09-27T03:52:59;14.40;;;3.33;;
3625;SDS011;1827;50.534;8.316;2022-09-27T03:55:25;15.63;;;3.53;;
3625;SDS011;1827;50.534;8.316;2022-09-27T03:57:51;16.47;;;3.23;;
3625;SDS011;1827;50.534;8.316;2022-09-27T04:00:18;14.03;;;3.17;;
3625;SDS011;1827;50.534;8.316;2022-09-27T04:02:44;17.97;;;3.60;;
3625;SDS011;1827;50.534;8.316;2022-09-27T04:05:22;18.07;;;4.27;;
3625;SDS011;1827;50.534;8.316;2022-09-27T04:07:52;22.90;;;4.20;;
3625;SDS011;1827;50.534;8.316;2022-09-27T04:10:18;22.20;;;3.57;;
3625;SDS011;1827;50.534;8.316;2022-09-27T04:12:45;18.70;;;4.00;;
3625;SDS011;1827;50.534;8.316;2022-09-27T04:15:11;18.73;;;3.73;;
3625;SDS011;1827;50.534;8.316;2022-09-27T04:17:50;15.60;;;3.67;;
3625;SDS011;1827;50.534;8.316;2022-09-27T04:20:39;17.57;;;3.90;;
3625;SDS011;1827;50.534;8.316;2022-09-27T04:23:08;18.97;;;3.90;;
3625;SDS011;1827;50.534;8.316;2022-09-27T04:25:37;15.00;;;3.90;;
3625;SDS011;1827;50.534;8.316;2022-09-27T04:28:13;16.03;;;3.57;;
3625;SDS011;1827;50.534;8.316;2022-09-27T04:30:39;19.33;;;4.10;;
3625;SDS011;1827;50.534;8.316;2022-09-27T04:33:12;15.30;;;3.60;;
3625;SDS011;1827;50.534;8.316;2022-09-27T04:35:56;17.63;;;3.70;;
3625;SDS011;1827;50.534;8.316;2022-09-27T04:38:57;14.70;;;3.63;;
3625;SDS011;1827;50.534;8.316;2022-09-27T04:41:25;15.00;;;3.65;;
3625;SDS011;1827;50.534;8.316;2022-09-27T04:43:53;15.57;;;3.83;;
3625;SDS011;1827;50.534;8.316;2022-09-27T04:46:20;16.50;;;3.90;;
3625;SDS011;1827;50.534;8.316;2022-09-27T04:48:46;16.30;;;3.40;;
3625;SDS011;1827;50.534;8.316;2022-09-27T04:51:13;19.30;;;4.00;;
3625;SDS011;1827;50.534;8.316;2022-09-27T04:53:43;15.00;;;3.90;;
3625;SDS011;1827;50.534;8.316;2022-09-27T04:56:10;16.20;;;4.03;;
3625;SDS011;1827;50.534;8.316;2022-09-27T04:58:37;15.30;;;3.63;;
3625;SDS011;1827;50.534;8.316;2022-09-27T05:01:04;20.13;;;3.70;;
3625;SDS011;1827;50.534;8.316;2022-09-27T05:03:49;18.33;;;4.50;;
3625;SDS011;1827;50.534;8.316;2022-09-27T05:06:14;15.97;;;4.20;;
3625;SDS011;1827;50.534;8.316;2022-09-27T05:08:41;20.00;;;4.50;;
3625;SDS011;1827;50.534;8.316;2022-09-27T05:11:12;21.70;;;5.60;;
3625;SDS011;1827;50.534;8.316;2022-09-27T05:13:41;15.77;;;4.40;;
3625;SDS011;1827;50.534;8.316;2022-09-27T05:16:07;18.13;;;4.60;;
3625;SDS011;1827;50.534;8.316;2022-09-27T05:18:45;19.27;;;4.93;;
3625;SDS011;1827;50.534;8.316;2022-09-27T05:21:29;17.60;;;4.37;;
3625;SDS011;1827;50.534;8.316;2022-09-27T05:23:56;18.90;;;4.70;;
3625;SDS011;1827;50.534;8.316;2022-09-27T05:26:22;20.87;;;4.27;;
3625;SDS011;1827;50.534;8.316;2022-09-27T05:28:48;26.73;;;4.60;;
3625;SDS011;1827;50.534;8.316;2022-09-27T05:31:14;18.00;;;4.45;;
3625;SDS011;1827;50.534;8.316;2022-09-27T05:33:41;17.83;;;4.77;;
3625;SDS011;1827;50.534;8.316;2022-09-27T05:36:39;19.93;;;4.87;;
3625;SDS011;1827;50.534;8.316;2022-09-27T05:39:04;18.20;;;5.03;;
3625;SDS011;1827;50.534;8.316;2022-09-27T05:41:31;17.40;;;4.60;;
3625;SDS011;1827;50.534;8.316;2022-09-27T05:43:58;16.83;;;4.43;;
3625;SDS011;1827;50.534;8.316;2022-09-27T05:46:25;21.10;;;4.80;;
3625;SDS011;1827;50.534;8.316;2022-09-27T05:49:01;21.60;;;4.80;;
3625;SDS011;1827;50.534;8.316;2022-09-27T05:51:28;16.27;;;4.60;;
3625;SDS011;1827;50.534;8.316;2022-09-27T05:53:53;21.33;;;4.90;;
3625;SDS011;1827;50.534;8.316;2022-09-27T05:56:25;19.80;;;4.25;;
3625;SDS011;1827;50.534;8.316;2022-09-27T06:04:47;19.63;;;4.33;;
3625;SDS011;1827;50.534;8.316;2022-09-27T06:10:08;16.43;;;4.47;;
3625;SDS011;1827;50.534;8.316;2022-09-27T06:12:34;19.53;;;4.40;;
3625;SDS011;1827;50.534;8.316;2022-09-27T06:15:01;18.23;;;4.43;;
3625;SDS011;1827;50.534;8.316;2022-09-27T06:17:37;18.70;;;5.10;;
3625;SDS011;1827;50.534;8.316;2022-09-27T06:20:11;17.00;;;4.30;;
3625;SDS011;1827;50.534;8.316;2022-09-27T06:45:46;16.00;;;4.10;;
3625;SDS011;1827;50.534;8.316;2022-09-27T06:48:33;21.10;;;4.20;;
3625;SDS011;1827;50.534;8.316;2022-09-27T06:51:13;17.30;;;4.10;;
3625;SDS011;1827;50.534;8.316;2022-09-27T06:53:38;19.40;;;3.47;;
3625;SDS011;1827;50.534;8.316;2022-09-27T07:46:09;17.00;;;3.57;;
3625;SDS011;1827;50.534;8.316;2022-09-27T07:48:52;17.20;;;3.13;;
3625;SDS011;1827;50.534;8.316;2022-09-27T15:04:15;18.23;;;4.13;;
3625;SDS011;1827;50.534;8.316;2022-09-27T15:06:42;16.03;;;3.03;;
3625;SDS011;1827;50.534;8.316;2022-09-27T15:09:10;15.27;;;2.80;;
3625;SDS011;1827;50.534;8.316;2022-09-27T15:11:41;13.87;;;2.30;;
3625;SDS011;1827;50.534;8.316;2022-09-27T15:14:12;15.80;;;2.37;;
3625;SDS011;1827;50.534;8.316;2022-09-27T15:16:41;14.07;;;2.40;;
3625;SDS011;1827;50.534;8.316;2022-09-27T15:21:41;15.70;;;2.80;;
3625;SDS011;1827;50.534;8.316;2022-09-27T15:24:34;16.60;;;3.17;;
3625;SDS011;1827;50.534;8.316;2022-09-27T15:27:12;15.87;;;3.10;;
3625;SDS011;1827;50.534;8.316;2022-09-27T15:29:49;15.37;;;3.33;;
3625;SDS011;1827;50.534;8.316;2022-09-27T15:32:17;19.60;;;4.40;;
3625;SDS011;1827;50.534;8.316;2022-09-27T15:34:45;17.80;;;4.57;;
3625;SDS011;1827;50.534;8.316;2022-09-27T15:37:33;16.40;;;3.63;;
3625;SDS011;1827;50.534;8.316;2022-09-27T15:40:38;21.43;;;3.20;;
3625;SDS011;1827;50.534;8.316;2022-09-27T15:45:32;15.00;;;2.77;;
3625;SDS011;1827;50.534;8.316;2022-09-27T15:48:33;14.20;;;2.33;;
3625;SDS011;1827;50.534;8.316;2022-09-27T15:50:51;13.77;;;2.20;;
3625;SDS011;1827;50.534;8.316;2022-09-27T15:56:02;19.97;;;2.40;;
3625;SDS011;1827;50.534;8.316;2022-09-27T15:58:33;13.80;;;2.20;;
3625;SDS011;1827;50.534;8.316;2022-09-27T16:01:00;18.90;;;4.17;;
3625;SDS011;1827;50.534;8.316;2022-09-27T16:03:29;21.43;;;5.17;;
3625;SDS011;1827;50.534;8.316;2022-09-27T16:05:56;21.63;;;6.20;;
3625;SDS011;1827;50.534;8.316;2022-09-27T16:08:23;17.83;;;4.33;;
3625;SDS011;1827;50.534;8.316;2022-09-27T16:10:51;19.33;;;3.97;;
3625;SDS011;1827;50.534;8.316;2022-09-27T16:13:19;16.87;;;3.13;;
3625;SDS011;1827;50.534;8.316;2022-09-27T16:15:45;18.30;;;3.60;;
3625;SDS011;1827;50.534;8.316;2022-09-27T16:18:12;15.57;;;2.93;;
3625;SDS011;1827;50.534;8.316;2022-09-27T16:20:38;15.80;;;3.37;;
3625;SDS011;1827;50.534;8.316;2022-09-27T16:23:04;15.47;;;2.90;;
3625;SDS011;1827;50.534;8.316;2022-09-27T16:25:30;18.17;;;3.50;;
3625;SDS011;1827;50.534;8.316;2022-09-27T16:27:59;17.27;;;3.70;;
3625;SDS011;1827;50.534;8.316;2022-09-27T16:30:26;17.80;;;3.53;;
3625;SDS011;1827;50.534;8.316;2022-09-27T16:32:52;16.27;;;4.30;;
3625;SDS011;1827;50.534;8.316;2022-09-27T16:35:19;17.70;;;4.40;;
3625;SDS011;1827;50.534;8.316;2022-09-27T16:37:45;18.17;;;4.00;;
3625;SDS011;1827;50.534;8.316;2022-09-27T16:40:12;20.50;;;5.67;;
3625;SDS011;1827;50.534;8.316;2022-09-27T16:42:39;21.20;;;6.37;;
3625;SDS011;1827;50.534;8.316;2022-09-27T16:45:06;19.50;;;5.83;;
3625;SDS011;1827;50.534;8.316;2022-09-27T16:47:33;15.90;;;3.30;;
3625;SDS011;1827;50.534;8.316;2022-09-27T16:49:59;16.87;;;4.20;;
3625;SDS011;1827;50.534;8.316;2022-09-27T16:52:44;18.43;;;3.30;;
3625;SDS011;1827;50.534;8.316;2022-09-27T16:55:13;15.80;;;3.23;;
3625;SDS011;1827;50.534;8.316;2022-09-27T16:57:45;17.37;;;4.40;;
3625;SDS011;1827;50.534;8.316;2022-09-27T17:00:22;17.73;;;3.97;;
3625;SDS011;1827;50.534;8.316;2022-09-27T17:02:48;15.60;;;4.00;;
3625;SDS011;1827;50.534;8.316;2022-09-27T17:05:14;15.13;;;3.30;;
3625;SDS011;1827;50.534;8.316;2022-09-27T17:07:40;15.83;;;3.00;;
3625;SDS011;1827;50.534;8.316;2022-09-27T17:10:07;15.40;;;3.40;;
3625;SDS011;1827;50.534;8.316;2022-09-27T17:12:33;15.33;;;3.43;;
3625;SDS011;1827;50.534;8.316;2022-09-27T17:14:59;20.43;;;4.03;;
3625;SDS011;1827;50.534;8.316;2022-09-27T17:17:24;18.10;;;3.20;;
3625;SDS011;1827;50.534;8.316;2022-09-27T17:19:50;15.90;;;2.75;;
3625;SDS011;1827;50.534;8.316;2022-09-27T17:24:42;16.83;;;3.47;;
3625;SDS011;1827;50.534;8.316;2022-09-27T17:27:08;16.97;;;3.33;;
3625;SDS011;1827;50.534;8.316;2022-09-27T17:31:59;17.80;;;3.57;;
3625;SDS011;1827;50.534;8.316;2022-09-27T17:34:25;19.90;;;4.47;;
3625;SDS011;1827;50.534;8.316;2022-09-27T17:36:51;17.60;;;4.30;;
3625;SDS011;1827;50.534;8.316;2022-09-27T17:39:18;19.10;;;4.83;;
3625;SDS011;1827;50.534;8.316;2022-09-27T17:41:49;21.00;;;5.70;;
3625;SDS011;1827;50.534;8.316;2022-09-27T17:44:16;18.03;;;5.07;;
3625;SDS011;1827;50.534;8.316;2022-09-27T17:46:43;23.63;;;7.23;;
3625;SDS011;1827;50.534;8.316;2022-09-27T17:49:10;22.50;;;6.73;;
3625;SDS011;1827;50.534;8.316;2022-09-27T17:51:54;25.33;;;7.90;;
3625;SDS011;1827;50.534;8.316;2022-09-27T17:56:47;19.60;;;5.40;;
3625;SDS011;1827;50.534;8.316;2022-09-27T17:59:14;19.90;;;4.53;;
3625;SDS011;1827;50.534;8.316;2022-09-27T18:01:42;19.43;;;4.50;;
3625;SDS011;1827;50.534;8.316;2022-09-27T18:04:09;18.80;;;4.37;;
3625;SDS011;1827;50.534;8.316;2022-09-27T18:06:37;21.67;;;6.67;;
3625;SDS011;1827;50.534;8.316;2022-09-27T18:09:04;22.55;;;7.55;;
3625;SDS011;1827;50.534;8.316;2022-09-27T18:11:32;24.83;;;7.67;;
3625;SDS011;1827;50.534;8.316;2022-09-27T18:13:58;23.97;;;7.90;;
3625;SDS011;1827;50.534;8.316;2022-09-27T18:16:29;26.27;;;8.27;;
3625;SDS011;1827;50.534;8.316;2022-09-27T18:18:58;22.83;;;6.90;;
3625;SDS011;1827;50.534;8.316;2022-09-27T18:21:25;21.90;;;6.17;;
3625;SDS011;1827;50.534;8.316;2022-09-27T18:23:52;20.17;;;5.97;;
3625;SDS011;1827;50.534;8.316;2022-09-27T18:33:40;18.70;;;4.90;;
3625;SDS011;1827;50.534;8.316;2022-09-27T18:36:13;17.73;;;4.20;;
3625;SDS011;1827;50.534;8.316;2022-09-27T18:38:41;20.10;;;4.70;;
3625;SDS011;1827;50.534;8.316;2022-09-27T19:20:04;19.63;;;4.20;;
3625;SDS011;1827;50.534;8.316;2022-09-27T19:49:15;20.30;;;6.40;;
3625;SDS011;1827;50.534;8.316;2022-09-27T19:54:08;17.27;;;5.17;;
3625;SDS011;1827;50.534;8.316;2022-09-27T19:56:35;21.97;;;6.87;;
3625;SDS011;1827;50.534;8.316;2022-09-27T19:59:00;23.30;;;6.60;;
3625;SDS011;1827;50.534;8.316;2022-09-27T20:01:26;21.40;;;6.67;;
3625;SDS011;1827;50.534;8.316;2022-09-27T20:03:52;18.80;;;5.60;;
3625;SDS011;1827;50.534;8.316;2022-09-27T23:07:45;19.70;;;4.50;;
3625;SDS011;1827;50.534;8.316;2022-09-27T23:10:12;18.10;;;4.17;;
3625;SDS011;1827;50.534;8.316;2022-09-27T23:12:37;17.23;;;4.23;;
3625;SDS011;1827;50.534;8.316;2022-09-27T23:15:03;16.43;;;4.00;;
